createdAt,value
2023-01-19T00:01:48.444Z,99202.38
2023-01-19T00:04:15.676Z,99203.50
2023-01-19T00:06:42.984Z,99214.06
2023-01-19T00:09:11.687Z,99215.69
2023-01-19T00:11:39.412Z,99202.66
2023-01-19T00:14:06.672Z,99200.84
2023-01-19T00:16:33.955Z,99198.44
2023-01-19T00:19:01.245Z,99210.91
2023-01-19T00:21:28.498Z,99221.91
2023-01-19T00:23:55.736Z,99209.00
2023-01-19T00:26:24.458Z,99227.75
2023-01-19T00:28:51.737Z,99221.38
2023-01-19T00:31:19.016Z,99219.16
2023-01-19T00:33:46.324Z,99221.81
2023-01-19T00:36:13.635Z,99227.25
2023-01-19T00:38:41.023Z,99246.91
2023-01-19T00:41:08.552Z,99224.06
2023-01-19T00:43:37.155Z,99224.06
2023-01-19T00:46:04.588Z,99234.28
2023-01-19T00:48:31.874Z,99235.84
2023-01-19T00:50:59.121Z,99231.97
2023-01-19T00:53:26.562Z,99225.19
2023-01-19T00:55:53.780Z,99234.63
2023-01-19T00:58:21.014Z,99225.72
2023-01-19T01:00:49.798Z,99233.97
2023-01-19T01:03:17.059Z,99234.28
2023-01-19T01:05:44.291Z,99237.13
2023-01-19T01:08:11.516Z,99246.13
2023-01-19T01:10:38.800Z,99255.53
2023-01-19T01:13:20.180Z,99252.56
2023-01-19T01:15:51.819Z,99258.16
2023-01-19T01:18:19.117Z,99272.31
2023-01-19T01:20:46.396Z,99273.03
2023-01-19T01:23:14.118Z,99275.72
2023-01-19T01:25:41.574Z,99280.84
2023-01-19T01:28:10.264Z,99288.03
2023-01-19T01:30:37.948Z,99295.31
2023-01-19T01:33:06.946Z,99304.06
2023-01-19T01:35:34.186Z,99313.56
2023-01-19T01:38:01.473Z,99316.72
2023-01-19T01:40:28.779Z,99328.50
2023-01-19T01:42:56.022Z,99338.28
2023-01-19T01:45:29.891Z,99344.94
2023-01-19T01:48:01.811Z,99330.75
2023-01-19T01:50:33.911Z,99329.56
2023-01-19T01:53:06.545Z,99330.84
2023-01-19T01:55:38.780Z,99345.63
2023-01-19T01:58:09.766Z,99342.41
2023-01-19T02:00:38.891Z,99355.78
2023-01-19T02:03:06.265Z,99366.22
2023-01-19T02:05:36.182Z,99357.97
2023-01-19T02:08:08.343Z,99366.22
2023-01-19T02:10:36.006Z,99360.72
2023-01-19T02:13:03.784Z,99355.91
2023-01-19T02:15:31.059Z,99362.56
2023-01-19T02:17:58.291Z,99362.47
2023-01-19T02:20:30.596Z,99360.94
2023-01-19T02:23:03.780Z,99368.84
2023-01-19T02:25:32.755Z,99368.47
2023-01-19T02:28:01.098Z,99371.66
2023-01-19T02:30:28.911Z,99371.22
2023-01-19T02:32:56.209Z,99373.63
2023-01-19T02:35:24.488Z,99377.09
2023-01-19T02:37:53.523Z,99382.22
2023-01-19T02:40:22.527Z,99381.38
2023-01-19T02:42:53.227Z,99394.75
2023-01-19T02:45:22.498Z,99389.13
2023-01-19T02:47:52.175Z,99392.38
2023-01-19T02:50:44.786Z,99391.53
2023-01-19T02:53:40.435Z,99382.03
2023-01-19T02:56:28.091Z,99380.38
2023-01-19T02:59:05.909Z,99377.63
2023-01-19T03:01:47.303Z,99372.41
2023-01-19T03:04:23.970Z,99390.50
2023-01-19T03:06:59.347Z,99367.00
2023-01-19T03:09:32.552Z,99366.13
2023-01-19T03:12:05.020Z,99381.09
2023-01-19T03:14:38.611Z,99372.00
2023-01-19T03:17:09.538Z,99373.22
2023-01-19T03:19:40.217Z,99374.75
2023-01-19T03:22:11.116Z,99370.47
2023-01-19T03:24:42.118Z,99366.91
2023-01-19T03:27:14.874Z,99374.06
2023-01-19T03:29:49.650Z,99374.06
2023-01-19T03:32:19.794Z,99376.47
2023-01-19T03:34:51.046Z,99381.16
2023-01-19T03:37:20.570Z,99380.25
2023-01-19T03:39:47.900Z,99385.81
2023-01-19T03:42:17.421Z,99387.81
2023-01-19T03:44:47.647Z,99394.63
2023-01-19T03:47:15.215Z,99395.84
2023-01-19T03:49:45.105Z,99401.69
2023-01-19T03:52:12.542Z,99405.13
2023-01-19T03:54:40.429Z,99404.78
2023-01-19T03:57:08.150Z,99410.38
2023-01-19T03:59:35.561Z,99411.13
2023-01-19T04:02:04.287Z,99416.22
2023-01-19T04:04:31.535Z,99422.56
2023-01-19T04:06:58.883Z,99418.28
2023-01-19T04:09:26.123Z,99421.28
2023-01-19T04:11:53.441Z,99427.56
2023-01-19T04:14:20.742Z,99432.63
2023-01-19T04:16:48.086Z,99432.28
2023-01-19T04:19:16.708Z,99432.28
2023-01-19T04:21:44.069Z,99417.34
2023-01-19T04:24:11.430Z,99417.41
2023-01-19T04:26:38.682Z,99429.19
2023-01-19T04:29:05.944Z,99424.53
2023-01-19T04:31:33.300Z,99430.81
2023-01-19T04:34:00.637Z,99426.94
2023-01-19T04:36:29.531Z,99430.16
2023-01-19T04:38:56.803Z,99432.09
2023-01-19T04:41:24.052Z,99430.16
2023-01-19T04:43:51.302Z,99432.50
2023-01-19T04:46:18.677Z,99439.47
2023-01-19T04:48:45.942Z,99437.94
2023-01-19T04:51:13.250Z,99448.94
2023-01-19T04:53:41.837Z,99438.41
2023-01-19T04:56:09.092Z,99449.47
2023-01-19T04:58:36.360Z,99444.38
2023-01-19T05:01:08.310Z,99440.03
2023-01-19T05:03:35.845Z,99450.25
2023-01-19T05:06:03.127Z,99453.41
2023-01-19T05:08:30.396Z,99446.03
2023-01-19T05:10:58.969Z,99448.34
2023-01-19T05:13:26.399Z,99445.22
2023-01-19T05:15:53.700Z,99439.38
2023-01-19T05:18:20.941Z,99439.38
2023-01-19T05:20:48.163Z,99442.50
2023-01-19T05:23:15.414Z,99450.00
2023-01-19T05:25:42.955Z,99440.59
2023-01-19T05:28:11.816Z,99440.22
2023-01-19T05:30:39.190Z,99433.50
2023-01-19T05:33:06.475Z,99430.84
2023-01-19T05:35:36.152Z,99431.13
2023-01-19T05:38:04.307Z,99428.03
2023-01-19T05:40:31.885Z,99417.03
2023-01-19T05:42:59.571Z,99407.53
2023-01-19T05:45:28.568Z,99397.66
2023-01-19T05:47:55.913Z,99399.56
2023-01-19T05:50:23.159Z,99394.16
2023-01-19T05:52:50.755Z,99384.63
2023-01-19T05:55:17.889Z,99380.66
2023-01-19T05:57:45.166Z,99379.91
2023-01-19T06:00:13.753Z,99369.19
2023-01-19T06:02:42.543Z,99366.44
2023-01-19T06:05:10.196Z,99364.09
2023-01-19T06:07:37.463Z,99358.13
2023-01-19T06:10:05.562Z,99360.44
2023-01-19T06:12:32.887Z,99352.19
2023-01-19T06:15:00.151Z,99350.56
2023-01-19T06:17:27.384Z,99345.78
2023-01-19T06:19:56.260Z,99339.91
2023-01-19T06:22:23.641Z,99340.97
2023-01-19T06:24:50.854Z,99345.69
2023-01-19T06:27:18.154Z,99330.66
2023-01-19T06:29:45.309Z,99339.28
2023-01-19T06:32:12.565Z,99343.66
2023-01-19T06:34:39.954Z,99344.13
2023-01-19T06:37:08.533Z,99340.19
2023-01-19T06:39:35.785Z,99340.06
2023-01-19T06:42:03.362Z,99355.00
2023-01-19T06:44:30.519Z,99345.91
2023-01-19T06:47:15.151Z,99348.66
2023-01-19T06:49:43.478Z,99342.38
2023-01-19T06:52:13.008Z,99339.84
2023-01-19T06:54:40.259Z,99346.25
2023-01-19T06:57:07.465Z,99349.34
2023-01-19T06:59:34.727Z,99353.31
2023-01-19T07:02:26.388Z,99343.84
2023-01-19T07:04:49.089Z,99358.44
2023-01-19T07:07:17.776Z,99364.66
2023-01-19T07:09:44.950Z,99362.59
2023-01-19T07:12:12.132Z,99368.59
2023-01-19T07:14:39.327Z,99375.47
2023-01-19T07:17:06.481Z,99373.13
2023-01-19T07:19:33.728Z,99384.56
2023-01-19T07:22:00.947Z,99386.09
2023-01-19T07:24:29.796Z,99396.75
2023-01-19T07:26:56.992Z,99397.25
2023-01-19T07:29:24.200Z,99402.38
2023-01-19T07:31:51.464Z,99401.50
2023-01-19T07:34:18.776Z,99416.50
2023-01-19T07:36:45.935Z,99419.75
2023-01-19T07:39:13.271Z,99419.25
2023-01-19T07:41:41.852Z,99420.88
2023-01-19T07:44:09.476Z,99425.66
2023-01-19T07:46:36.714Z,99429.19
2023-01-19T07:49:04.014Z,99432.28
2023-01-19T07:51:31.175Z,99438.44
2023-01-19T07:53:58.485Z,99439.28
2023-01-19T07:56:25.703Z,99438.84
2023-01-19T07:58:54.364Z,99446.75
2023-01-19T08:01:21.672Z,99448.31
2023-01-19T08:03:49.310Z,99457.63
2023-01-19T08:06:20.851Z,99464.34
2023-01-19T08:08:48.730Z,99471.31
2023-01-19T08:11:16.109Z,99469.28
2023-01-19T08:13:43.463Z,99470.31
2023-01-19T08:16:12.132Z,99465.88
2023-01-19T08:18:39.433Z,99481.09
2023-01-19T08:21:06.732Z,99479.44
2023-01-19T08:23:34.010Z,99485.41
2023-01-19T08:26:01.214Z,99493.69
2023-01-19T08:28:28.505Z,99489.16
2023-01-19T08:30:55.857Z,99489.72
2023-01-19T08:33:24.794Z,99488.94
2023-01-19T08:35:53.800Z,99487.34
2023-01-19T08:38:21.182Z,99490.31
2023-01-19T08:40:49.037Z,99488.19
2023-01-19T08:43:17.475Z,99493.13
2023-01-19T08:45:50.425Z,99497.56
2023-01-19T08:48:20.062Z,99503.94
2023-01-19T08:50:49.689Z,99502.00
2023-01-19T08:53:17.167Z,99506.56
2023-01-19T08:55:44.420Z,99514.44
2023-01-19T08:58:11.635Z,99507.44
2023-01-19T09:00:40.007Z,99496.28
2023-01-19T09:03:11.108Z,99500.34
2023-01-19T09:05:39.124Z,99511.34
2023-01-19T09:08:10.195Z,99504.91
2023-01-19T09:10:38.441Z,99517.38
2023-01-19T09:13:07.210Z,99513.88
2023-01-19T09:15:34.526Z,99526.88
2023-01-19T09:18:02.387Z,99529.75
2023-01-19T09:20:29.975Z,99523.06
2023-01-19T09:22:57.829Z,99530.97
2023-01-19T09:25:26.888Z,99526.16
2023-01-19T09:27:54.068Z,99532.38
2023-01-19T09:30:21.733Z,99536.47
2023-01-19T09:32:48.970Z,99536.59
2023-01-19T09:35:16.320Z,99553.81
2023-01-19T09:37:46.300Z,99545.84
2023-01-19T09:40:15.084Z,99557.66
2023-01-19T09:42:45.837Z,99572.81
2023-01-19T09:45:19.357Z,99573.50
2023-01-19T09:47:48.295Z,99564.00
2023-01-19T09:50:26.054Z,99574.16
2023-01-19T09:52:57.077Z,99570.63
2023-01-19T09:55:27.354Z,99572.53
2023-01-19T09:57:56.082Z,99566.25
2023-01-19T10:00:25.147Z,99577.63
2023-01-19T10:02:58.575Z,99572.13
2023-01-19T10:05:31.391Z,99583.63
2023-01-19T10:08:13.931Z,99581.56
2023-01-19T10:10:45.256Z,99576.41
2023-01-19T10:13:38.993Z,99583.63
2023-01-19T10:16:19.369Z,99582.50
2023-01-19T10:18:48.254Z,99584.84
2023-01-19T10:21:20.843Z,99581.16
2023-01-19T10:23:53.468Z,99588.09
2023-01-19T10:26:24.261Z,99588.16
2023-01-19T10:28:55.533Z,99592.22
2023-01-19T10:31:24.537Z,99598.22
2023-01-19T10:33:52.569Z,99594.22
2023-01-19T10:36:26.234Z,99606.59
2023-01-19T10:38:53.485Z,99607.91
2023-01-19T10:41:26.905Z,99611.78
2023-01-19T10:44:01.597Z,99606.78
2023-01-19T10:46:37.162Z,99612.09
2023-01-19T10:49:05.453Z,99604.75
2023-01-19T10:51:32.761Z,99603.81
2023-01-19T10:54:01.891Z,99608.25
2023-01-19T10:56:35.681Z,99597.38
2023-01-19T10:59:06.175Z,99598.53
2023-01-19T11:01:34.204Z,99600.28
2023-01-19T11:04:18.759Z,99592.69
2023-01-19T11:06:46.043Z,99588.41
2023-01-19T11:09:17.600Z,99592.09
2023-01-19T11:11:47.961Z,99594.84
2023-01-19T11:14:19.223Z,99594.28
2023-01-19T11:16:49.960Z,99587.69
2023-01-19T11:19:24.973Z,99591.88
2023-01-19T11:21:53.287Z,99597.47
2023-01-19T11:24:20.833Z,99588.28
2023-01-19T11:26:55.096Z,99581.44
2023-01-19T11:29:26.518Z,99580.06
2023-01-19T11:31:55.327Z,99589.31
2023-01-19T11:34:26.321Z,99593.91
2023-01-19T11:36:58.869Z,99572.97
2023-01-19T11:39:27.508Z,99572.88
2023-01-19T11:41:57.240Z,99573.75
2023-01-19T11:44:30.060Z,99585.81
2023-01-19T11:47:00.137Z,99580.13
2023-01-19T11:49:40.492Z,99570.50
2023-01-19T11:52:19.175Z,99574.50
2023-01-19T11:54:54.108Z,99577.59
2023-01-19T11:57:21.468Z,99577.75
2023-01-19T11:59:52.806Z,99577.41
2023-01-19T12:02:27.114Z,99573.28
2023-01-19T12:04:57.902Z,99578.94
2023-01-19T12:07:30.110Z,99585.41
2023-01-19T12:10:06.994Z,99582.91
2023-01-19T12:12:36.479Z,99575.31
2023-01-19T12:15:15.341Z,99571.22
2023-01-19T12:17:47.403Z,99567.94
2023-01-19T12:20:25.003Z,99558.59
2023-01-19T12:23:11.562Z,99565.88
2023-01-19T12:25:54.653Z,99549.56
2023-01-19T12:28:28.557Z,99558.16
2023-01-19T12:30:59.256Z,99557.94
2023-01-19T12:33:33.500Z,99561.22
2023-01-19T12:36:03.240Z,99565.25
2023-01-19T12:38:39.030Z,99564.72
2023-01-19T12:41:21.038Z,99559.00
2023-01-19T12:44:09.089Z,99561.38
2023-01-19T12:46:38.786Z,99560.28
2023-01-19T12:49:10.920Z,99563.31
2023-01-19T12:51:38.430Z,99557.84
2023-01-19T12:54:08.176Z,99555.22
2023-01-19T12:56:37.730Z,99536.84
2023-01-19T12:59:05.386Z,99517.97
2023-01-19T13:01:32.828Z,99495.59
2023-01-19T13:04:06.606Z,99472.03
2023-01-19T13:07:09.419Z,99426.44
2023-01-19T13:09:38.103Z,99387.16
2023-01-19T13:12:22.880Z,99338.56
2023-01-19T13:14:50.296Z,99314.31
2023-01-19T13:17:25.247Z,99287.41
2023-01-19T13:20:00.751Z,99230.41
2023-01-19T13:23:01.617Z,99186.00
2023-01-19T13:25:32.771Z,99159.25
2023-01-19T13:28:00.877Z,99139.13
2023-01-19T13:30:30.062Z,99104.00
2023-01-19T13:33:05.262Z,99095.72
2023-01-19T13:35:34.075Z,99084.44
2023-01-19T13:38:02.475Z,99064.13
2023-01-19T13:40:36.565Z,99094.75
2023-01-19T13:43:06.864Z,99135.09
2023-01-19T13:45:36.957Z,99125.22
2023-01-19T13:48:07.693Z,99132.91
2023-01-19T13:50:37.489Z,99148.66
2023-01-19T13:53:17.099Z,99152.16
2023-01-19T13:55:44.417Z,99162.09
2023-01-19T13:58:20.565Z,99174.47
2023-01-19T14:00:48.124Z,99167.28
2023-01-19T14:03:18.750Z,99183.69
2023-01-19T14:05:50.047Z,99190.19
2023-01-19T14:08:17.435Z,99190.13
2023-01-19T14:10:46.440Z,99199.13
2023-01-19T14:13:15.756Z,99198.03
2023-01-19T14:15:44.661Z,99205.50
2023-01-19T14:18:25.697Z,99210.97
2023-01-19T14:20:59.306Z,99215.41
2023-01-19T14:23:44.912Z,99227.53
2023-01-19T14:26:41.223Z,99207.22
2023-01-19T14:29:17.393Z,99197.22
2023-01-19T14:31:45.997Z,99203.25
2023-01-19T14:34:32.662Z,99232.25
2023-01-19T14:37:02.809Z,99229.16
2023-01-19T14:39:33.113Z,99226.59
2023-01-19T14:42:03.592Z,99230.28
2023-01-19T14:44:36.983Z,99233.06
2023-01-19T14:47:05.983Z,99245.41
2023-01-19T14:49:35.461Z,99250.72
2023-01-19T14:52:08.367Z,99253.59
2023-01-19T14:54:39.093Z,99259.78
2023-01-19T14:57:12.012Z,99274.06
2023-01-19T14:59:39.363Z,99284.97
2023-01-19T15:02:06.920Z,99298.16
2023-01-19T15:04:34.386Z,99304.34
2023-01-19T15:07:01.676Z,99321.75
2023-01-19T15:09:30.444Z,99329.16
2023-01-19T15:11:58.244Z,99350.56
2023-01-19T15:14:25.493Z,99363.34
2023-01-19T15:16:52.691Z,99377.59
2023-01-19T15:19:19.925Z,99381.00
2023-01-19T15:21:47.090Z,99394.72
2023-01-19T15:24:16.356Z,99408.16
2023-01-19T15:26:46.609Z,99396.81
2023-01-19T15:29:19.237Z,99365.56
2023-01-19T15:31:46.670Z,99347.13
2023-01-19T15:34:13.975Z,99329.56
2023-01-19T15:36:41.620Z,99321.16
2023-01-19T15:39:09.195Z,99320.16
2023-01-19T15:41:38.594Z,99320.91
2023-01-19T15:44:08.877Z,99323.16
2023-01-19T15:46:36.702Z,99344.41
2023-01-19T15:49:03.926Z,99349.94
2023-01-19T15:51:31.484Z,99354.31
2023-01-19T15:53:58.708Z,99367.31
2023-01-19T15:56:27.960Z,99373.09
2023-01-19T15:58:56.056Z,99389.63
2023-01-19T16:01:26.890Z,99393.97
2023-01-19T16:03:54.181Z,99407.84
2023-01-19T16:06:21.453Z,99413.53
2023-01-19T16:08:48.637Z,99435.50
2023-01-19T16:11:15.927Z,99457.78
2023-01-19T16:13:45.289Z,99470.03
2023-01-19T16:16:15.700Z,99487.94
2023-01-19T16:18:44.564Z,99493.88
2023-01-19T16:21:11.839Z,99511.63
2023-01-19T16:23:39.302Z,99522.78
2023-01-19T16:26:08.503Z,99538.53
2023-01-19T16:28:36.833Z,99542.59
2023-01-19T16:31:04.653Z,99557.63
2023-01-19T16:33:31.874Z,99560.03
2023-01-19T16:36:17.538Z,99578.97
2023-01-19T16:38:44.938Z,99587.81
2023-01-19T16:41:12.122Z,99605.50
2023-01-19T16:43:39.372Z,99601.97
2023-01-19T16:46:06.658Z,99618.56
2023-01-19T16:48:33.903Z,99633.97
2023-01-19T16:51:04.687Z,99639.84
2023-01-19T16:53:33.478Z,99655.78
2023-01-19T16:56:04.541Z,99677.09
2023-01-19T16:58:31.816Z,99683.44
2023-01-19T17:00:59.203Z,99693.75
2023-01-19T17:03:26.542Z,99702.00
2023-01-19T17:05:53.785Z,99727.59
2023-01-19T17:08:22.480Z,99741.38
2023-01-19T17:10:49.673Z,99749.63
2023-01-19T17:13:17.058Z,99754.44
2023-01-19T17:15:44.248Z,99771.06
2023-01-19T17:18:11.453Z,99782.06
2023-01-19T17:20:38.661Z,99793.78
2023-01-19T17:23:05.996Z,99801.06
2023-01-19T17:25:34.587Z,99809.13
2023-01-19T17:28:01.799Z,99813.06
2023-01-19T17:30:29.190Z,99820.59
2023-01-19T17:32:56.687Z,99827.19
2023-01-19T17:35:24.114Z,99836.66
2023-01-19T17:37:53.017Z,99848.13
2023-01-19T17:40:20.259Z,99854.28
2023-01-19T17:42:48.855Z,99855.91
2023-01-19T17:45:16.304Z,99861.53
2023-01-19T17:47:43.848Z,99864.75
2023-01-19T17:50:11.545Z,99858.88
2023-01-19T17:52:38.958Z,99869.59
2023-01-19T17:55:06.836Z,99873.97
2023-01-19T17:57:34.079Z,99889.66
2023-01-19T18:00:03.765Z,99880.69
2023-01-19T18:02:39.609Z,99885.03
2023-01-19T18:05:08.127Z,99892.50
2023-01-19T18:07:35.445Z,99889.31
2023-01-19T18:10:02.690Z,99890.16
2023-01-19T18:12:29.872Z,99892.13
2023-01-19T18:14:57.076Z,99893.66
2023-01-19T18:17:25.799Z,99896.50
2023-01-19T18:19:53.037Z,99905.53
2023-01-19T18:22:20.248Z,99909.94
2023-01-19T18:24:47.433Z,99918.63
2023-01-19T18:27:14.789Z,99927.25
2023-01-19T18:29:42.048Z,99920.59
2023-01-19T18:32:09.607Z,99923.38
2023-01-19T18:34:38.279Z,99931.28
2023-01-19T18:37:05.432Z,99932.84
2023-01-19T18:39:32.789Z,99938.44
2023-01-19T18:42:00.007Z,99937.69
2023-01-19T18:44:27.267Z,99943.19
2023-01-19T18:46:54.436Z,99945.19
2023-01-19T18:49:21.711Z,99957.44
2023-01-19T18:51:50.267Z,99952.81
2023-01-19T18:54:17.526Z,99963.00
2023-01-19T18:56:44.766Z,99959.09
2023-01-19T18:59:12.025Z,99966.94
2023-01-19T19:01:39.364Z,99976.34
2023-01-19T19:04:06.839Z,99975.56
2023-01-19T19:06:34.309Z,99970.13
2023-01-19T19:09:03.507Z,99978.75
2023-01-19T19:11:30.794Z,99991.78
2023-01-19T19:14:01.308Z,99989.81
2023-01-19T19:16:29.955Z,99997.66
2023-01-19T19:18:57.287Z,100001.63
2023-01-19T19:21:24.671Z,100010.72
2023-01-19T19:23:53.053Z,100013.47
2023-01-19T19:26:22.998Z,100018.97
2023-01-19T19:28:50.334Z,100021.72
2023-01-19T19:31:19.445Z,100024.47
2023-01-19T19:33:47.559Z,100033.94
2023-01-19T19:36:15.287Z,100032.38
2023-01-19T19:38:42.661Z,100044.19
2023-01-19T19:41:12.571Z,100046.53
2023-01-19T19:43:41.176Z,100049.69
2023-01-19T19:46:10.534Z,100059.50
2023-01-19T19:48:39.330Z,100054.41
2023-01-19T19:51:17.499Z,100063.84
2023-01-19T19:53:45.347Z,100063.06
2023-01-19T19:56:13.311Z,100070.16
2023-01-19T19:58:42.908Z,100074.06
2023-01-19T20:01:12.000Z,100086.25
2023-01-19T20:03:39.522Z,100092.53
2023-01-19T20:06:08.928Z,100093.75
2023-01-19T20:08:36.600Z,100102.38
2023-01-19T20:11:05.949Z,100115.72
2023-01-19T20:13:34.186Z,100129.88
2023-01-19T20:16:05.166Z,100126.72
2023-01-19T20:18:32.691Z,100138.50
2023-01-19T20:21:00.159Z,100145.56
2023-01-19T20:23:27.399Z,100142.41
2023-01-19T20:25:54.682Z,100148.72
2023-01-19T20:28:21.974Z,100163.63
2023-01-19T20:30:49.281Z,100169.47
2023-01-19T20:33:17.987Z,100175.38
2023-01-19T20:35:45.185Z,100182.44
2023-01-19T20:38:12.394Z,100182.03
2023-01-19T20:40:39.589Z,100185.94
2023-01-19T20:43:06.820Z,100190.28
2023-01-19T20:45:34.097Z,100193.44
2023-01-19T20:48:01.466Z,100196.56
2023-01-19T20:50:30.078Z,100199.69
2023-01-19T20:52:57.395Z,100211.47
2023-01-19T20:55:24.577Z,100215.41
2023-01-19T20:57:51.923Z,100216.19
2023-01-19T21:00:19.690Z,100229.53
2023-01-19T21:02:47.068Z,100231.13
2023-01-19T21:05:14.659Z,100232.72
2023-01-19T21:07:43.469Z,100240.94
2023-01-19T21:10:10.845Z,100249.56
2023-01-19T21:12:38.065Z,100253.88
2023-01-19T21:15:06.542Z,100258.59
2023-01-19T21:17:33.809Z,100260.16
2023-01-19T21:20:00.994Z,100275.06
2023-01-19T21:22:28.283Z,100279.00
2023-01-19T21:24:56.824Z,100282.13
2023-01-19T21:27:24.164Z,100287.59
2023-01-19T21:29:51.459Z,100293.88
2023-01-19T21:32:18.791Z,100293.47
2023-01-19T21:34:46.045Z,100301.72
2023-01-19T21:37:13.371Z,100302.50
2023-01-19T21:39:40.586Z,100307.25
2023-01-19T21:42:09.248Z,100309.59
2023-01-19T21:44:36.579Z,100321.72
2023-01-19T21:47:04.546Z,100328.41
2023-01-19T21:49:31.713Z,100332.31
2023-01-19T21:51:59.078Z,100348.41
2023-01-19T21:54:26.610Z,100348.00
2023-01-19T21:56:53.895Z,100357.41
2023-01-19T21:59:22.446Z,100366.44
2023-01-19T22:01:49.894Z,100373.47
2023-01-19T22:04:17.225Z,100380.97
2023-01-19T22:06:44.544Z,100384.47
2023-01-19T22:09:11.756Z,100397.81
2023-01-19T22:11:39.025Z,100409.56
2023-01-19T22:14:06.325Z,100413.09
2023-01-19T22:16:34.933Z,100425.66
2023-01-19T22:19:02.347Z,100435.03
2023-01-19T22:21:32.132Z,100437.41
2023-01-19T22:24:00.562Z,100447.63
2023-01-19T22:26:29.019Z,100454.66
2023-01-19T22:28:57.988Z,100461.69
2023-01-19T22:31:27.193Z,100469.09
2023-01-19T22:33:56.326Z,100473.41
2023-01-19T22:36:24.934Z,100488.31
2023-01-19T22:38:54.406Z,100489.13
2023-01-19T22:41:24.002Z,100486.38
2023-01-19T22:43:54.150Z,100496.53
2023-01-19T22:46:23.441Z,100504.00
2023-01-19T22:48:51.333Z,100501.63
2023-01-19T22:51:21.512Z,100500.81
2023-01-19T22:53:48.892Z,100508.63
2023-01-19T22:56:18.128Z,100515.72
2023-01-19T22:58:46.697Z,100519.22
2023-01-19T23:01:16.600Z,100515.31
2023-01-19T23:03:44.078Z,100514.50
2023-01-19T23:06:12.973Z,100512.94
2023-01-19T23:08:42.054Z,100515.72
2023-01-19T23:11:11.864Z,100514.09
2023-01-19T23:13:39.314Z,100505.50
2023-01-19T23:16:07.829Z,100519.22
2023-01-19T23:18:35.256Z,100520.38
2023-01-19T23:21:03.699Z,100516.84
2023-01-19T23:23:31.080Z,100521.16
2023-01-19T23:26:03.860Z,100517.22
2023-01-19T23:28:31.201Z,100521.56
2023-01-19T23:30:58.560Z,100517.19
2023-01-19T23:33:25.988Z,100516.41
2023-01-19T23:35:55.096Z,100516.78
2023-01-19T23:38:22.669Z,100526.53
2023-01-19T23:40:49.893Z,100520.19
2023-01-19T23:43:18.463Z,100526.47
2023-01-19T23:45:45.648Z,100536.66
2023-01-19T23:48:13.060Z,100538.97
2023-01-19T23:50:40.799Z,100539.72
2023-01-19T23:53:08.140Z,100527.97
2023-01-19T23:55:35.422Z,100530.28
2023-01-19T23:58:02.867Z,100534.16
